Time;durP1;ratioP1;P1;durP2;ratioP2;P2;SDS_P1;SDS_P2;PMS_P1;PMS_P2;Temp;Humidity;BMP_temperature;BMP_pressure;BME280_temperature;BME280_humidity;BME280_pressure;Samples;Min_cycle;Max_cycle;Signal;HPM_P1;HPM_P2
2024/03/28 09:40:30;;;;;;;2.97;1.15;;;;;;;5.43;89.04;94225.09;2115117;27;20490;-71
2024/03/28 09:42:26;;;;;;;4.50;0.80;;;;;;;5.51;88.57;94215.94;2084829;28;20563;-70
2024/03/28 09:45:20;;;;;;;1.67;0.88;;;;;;;5.68;88.50;94230.38;2090881;28;20551;-63
2024/03/28 09:48:09;;;;;;;1.63;0.77;;;;;;;5.78;87.86;94241.00;2085335;28;20565;-62
2024/03/28 09:50:09;;;;;;;2.13;0.80;;;;;;;5.76;86.56;94236.84;2092199;27;20823;-63
2024/03/28 09:52:07;;;;;;;1.20;0.60;;;;;;;5.77;87.19;94231.56;2109529;27;20548;-63
2024/03/28 09:54:05;;;;;;;1.30;0.60;;;;;;;5.81;85.77;94237.38;2083489;28;20576;-63
2024/03/28 09:55:07;;;;;;;2.10;0.93;;;;;;;5.88;86.50;94220.53;2082403;28;20206;-63
2024/03/28 09:56:07;;;;;;;1.95;0.70;;;;;;;5.95;85.73;94258.03;2083174;28;20208;-63
2024/03/28 09:57:08;;;;;;;2.13;0.60;;;;;;;5.92;84.84;94200.41;2080706;28;20214;-62
2024/03/28 09:58:09;;;;;;;1.30;0.70;;;;;;;6.05;85.18;94212.47;2074589;28;20262;-62
2024/03/28 09:59:10;;;;;;;1.65;0.80;;;;;;;6.02;85.07;94204.09;2068727;28;20745;-63
2024/03/28 10:00:14;;;;;;;1.60;0.70;;;;;;;6.09;84.96;94212.31;2073453;28;20210;-70
2024/03/28 10:01:15;;;;;;;2.28;0.60;;;;;;;6.09;84.92;94220.06;2066327;28;20206;-70
2024/03/28 10:02:18;;;;;;;1.52;0.70;;;;;;;6.06;84.32;94218.50;2066408;28;20211;-71
2024/03/28 10:03:32;;;;;;;2.42;0.70;;;;;;;6.13;84.05;94226.72;2070240;28;20219;-72
2024/03/28 10:04:35;;;;;;;1.35;0.60;;;;;;;6.27;83.94;94220.63;2075811;28;20220;-70
2024/03/28 10:05:36;;;;;;;1.38;0.65;;;;;;;6.27;83.94;94230.97;2074912;28;20213;-70
2024/03/28 10:06:45;;;;;;;1.30;0.60;;;;;;;6.47;83.58;94217.50;2066045;28;20242;-71
2024/03/28 10:07:49;;;;;;;1.65;0.70;;;;;;;6.43;83.23;94220.44;2066191;28;20215;-70
2024/03/28 10:08:51;;;;;;;1.60;0.65;;;;;;;6.49;82.43;94238.19;2071731;28;20222;-71
2024/03/28 10:09:51;;;;;;;1.60;0.70;;;;;;;6.46;82.18;94218.47;2067106;28;20289;-71
2024/03/28 10:10:53;;;;;;;1.40;0.60;;;;;;;6.32;81.65;94232.34;2064836;28;20679;-71
2024/03/28 10:11:54;;;;;;;1.10;0.60;;;;;;;6.41;82.16;94233.47;2073946;28;20443;-70
2024/03/28 10:12:56;;;;;;;1.07;0.50;;;;;;;6.47;80.80;94240.03;2066998;28;20660;-71
2024/03/28 10:13:56;;;;;;;1.52;0.60;;;;;;;6.55;79.60;94224.78;2065209;28;20689;-71
2024/03/28 10:14:57;;;;;;;3.53;0.70;;;;;;;6.64;79.11;94231.97;2065520;28;20771;-71
2024/03/28 10:15:59;;;;;;;1.10;0.50;;;;;;;6.61;78.90;94241.69;2067091;28;20243;-71
2024/03/28 10:17:01;;;;;;;1.00;0.50;;;;;;;6.71;78.30;94232.38;2066324;28;20722;-72
2024/03/28 10:18:05;;;;;;;2.65;0.60;;;;;;;7.19;76.91;94229.09;2062358;28;20217;-70
2024/03/28 10:19:06;;;;;;;1.20;0.52;;;;;;;7.28;75.11;94238.84;2066773;28;20637;-71
2024/03/28 10:20:10;;;;;;;1.47;0.50;;;;;;;6.97;75.31;94259.13;2067579;28;20668;-74
2024/03/28 10:21:12;;;;;;;3.20;0.70;;;;;;;6.62;75.86;94200.09;2069214;28;20435;-72
2024/03/28 10:22:12;;;;;;;1.00;0.50;;;;;;;6.70;76.33;94248.84;2066099;28;20211;-73
2024/03/28 10:23:13;;;;;;;1.93;0.60;;;;;;;6.75;76.64;94248.56;2074381;28;20245;-72
2024/03/28 10:24:18;;;;;;;1.10;0.50;;;;;;;6.75;76.15;94251.97;2064191;28;20273;-74
2024/03/28 10:25:25;;;;;;;1.27;0.50;;;;;;;7.07;75.53;94241.16;2061913;28;20234;-73
2024/03/28 10:26:29;;;;;;;10.88;0.80;;;;;;;7.34;74.88;94248.78;2063103;28;20203;-73
2024/03/28 10:27:30;;;;;;;2.13;1.13;;;;;;;7.27;75.40;94255.34;2069694;28;20225;-74
2024/03/28 10:28:35;;;;;;;2.27;1.03;;;;;;;7.25;75.81;94251.19;2070010;28;20821;-73
2024/03/28 10:29:36;;;;;;;1.00;0.60;;;;;;;7.02;74.19;94243.22;2069720;28;20214;-73
2024/03/28 10:30:38;;;;;;;1.10;0.50;;;;;;;7.08;75.64;94248.00;2063594;28;20211;-74
2024/03/28 10:31:42;;;;;;;2.05;0.68;;;;;;;7.34;75.43;94251.38;2073378;28;20218;-61
2024/03/28 10:32:42;;;;;;;1.75;0.60;;;;;;;7.59;74.04;94243.63;2078192;28;20320;-61
2024/03/28 10:33:43;;;;;;;2.30;0.70;;;;;;;7.80;73.05;94236.91;2069713;28;20259;-61
2024/03/28 10:34:51;;;;;;;1.58;0.60;;;;;;;7.97;72.60;94214.91;2073472;28;20561;-62
2024/03/28 10:36:02;;;;;;;2.08;0.60;;;;;;;8.30;70.79;94222.91;2074593;28;20200;-62
2024/03/28 10:37:06;;;;;;;2.90;0.73;;;;;;;8.80;70.56;94214.91;2074081;28;20524;-72
2024/03/28 10:38:06;;;;;;;2.80;0.70;;;;;;;9.43;68.13;94217.00;2064791;28;20206;-72
2024/03/28 10:39:08;;;;;;;1.23;0.60;;;;;;;9.08;67.34;94216.19;2073345;28;20271;-73
2024/03/28 10:40:09;;;;;;;1.30;0.52;;;;;;;9.34;66.56;94223.75;2066396;28;20736;-74
2024/03/28 10:41:13;;;;;;;5.60;0.60;;;;;;;9.50;66.79;94215.56;2066431;28;20202;-74
2024/03/28 10:42:14;;;;;;;1.48;0.50;;;;;;;8.79;66.78;94218.44;2070234;28;20211;-73
2024/03/28 10:43:15;;;;;;;1.98;0.60;;;;;;;9.16;66.49;94207.78;2069697;28;20209;-73
2024/03/28 10:44:17;;;;;;;1.27;0.60;;;;;;;9.12;67.23;94209.78;2067806;28;20254;-61
2024/03/28 10:45:18;;;;;;;2.25;0.70;;;;;;;9.43;66.75;94203.97;2068939;28;20561;-61
2024/03/28 10:46:20;;;;;;;2.28;0.60;;;;;;;9.45;66.05;94215.91;2064116;28;20211;-61
2024/03/28 10:47:23;;;;;;;2.13;0.82;;;;;;;9.53;65.14;94211.88;2061461;28;20215;-61
2024/03/28 10:48:31;;;;;;;1.20;0.60;;;;;;;9.30;65.61;94219.72;2060245;28;20286;-62
2024/03/28 10:49:41;;;;;;;1.40;0.60;;;;;;;9.27;65.91;94220.00;2067335;28;20233;-61
2024/03/28 10:51:27;;;;;;;1.58;0.55;;;;;;;9.27;65.75;94220.81;2068997;28;20210;-61
2024/03/28 10:52:43;;;;;;;1.80;0.60;;;;;;;10.03;62.89;94216.59;2055884;28;20694;-61
2024/03/28 10:54:01;;;;;;;1.20;0.60;;;;;;;10.27;62.00;94221.59;2065470;28;20852;-61
2024/03/28 10:55:04;;;;;;;3.28;0.60;;;;;;;10.50;60.93;94238.00;2071473;28;20207;-61
2024/03/28 10:56:09;;;;;;;6.20;0.70;;;;;;;10.39;61.37;94223.22;2069445;28;20272;-61
2024/03/28 10:57:11;;;;;;;1.10;0.50;;;;;;;10.51;61.22;94233.59;2066482;28;20210;-61
2024/03/28 10:58:13;;;;;;;1.60;0.68;;;;;;;10.23;61.31;94209.75;2067821;28;20211;-62
2024/03/28 10:59:13;;;;;;;1.50;0.60;;;;;;;10.46;61.40;94226.16;2074249;28;20206;-62
2024/03/28 11:00:14;;;;;;;1.30;0.50;;;;;;;10.58;60.97;94211.28;2065723;28;20245;-62
2024/03/28 11:01:16;;;;;;;1.10;0.60;;;;;;;10.90;60.47;94229.44;2070048;28;20257;-62
2024/03/28 11:02:19;;;;;;;1.10;0.60;;;;;;;10.74;60.13;94235.13;2068469;28;20289;-62
2024/03/28 11:03:21;;;;;;;2.78;1.13;;;;;;;10.69;60.15;94252.13;2065473;28;20255;-62
2024/03/28 11:04:23;;;;;;;1.63;0.60;;;;;;;10.84;59.89;94209.06;2065914;28;20226;-62
2024/03/28 11:05:29;;;;;;;1.10;0.50;;;;;;;10.95;59.25;94255.16;2060192;28;20203;-62
2024/03/28 11:06:30;;;;;;;2.53;0.57;;;;;;;10.94;58.70;94225.63;2069133;28;20574;-61
2024/03/28 11:07:32;;;;;;;2.05;0.50;;;;;;;10.68;59.09;94251.31;2064756;28;20301;-62
2024/03/28 11:08:33;;;;;;;1.85;0.52;;;;;;;10.56;59.68;94250.56;2062412;28;20241;-61
2024/03/28 11:09:34;;;;;;;1.13;0.50;;;;;;;10.27;59.76;94240.69;2064541;28;20215;-61
2024/03/28 11:10:36;;;;;;;1.10;0.50;;;;;;;10.15;60.19;94238.25;2064566;28;20455;-62
2024/03/28 11:11:37;;;;;;;1.20;0.55;;;;;;;10.40;59.88;94252.75;2060700;28;21069;-62
2024/03/28 11:12:38;;;;;;;1.20;0.70;;;;;;;10.86;60.06;94276.84;2060378;28;20601;-62
2024/03/28 11:13:38;;;;;;;1.10;0.50;;;;;;;10.78;59.56;94240.94;2058843;28;20231;-62
2024/03/28 11:14:39;;;;;;;1.53;0.60;;;;;;;10.65;59.84;94242.91;2060401;28;20465;-62
2024/03/28 11:15:39;;;;;;;1.10;0.50;;;;;;;10.65;59.25;94251.53;2064075;28;20322;-63
2024/03/28 11:16:40;;;;;;;1.73;0.60;;;;;;;10.49;59.59;94261.59;2064450;28;20801;-63
2024/03/28 11:17:41;;;;;;;1.10;0.50;;;;;;;10.64;59.26;94272.56;2068151;28;20246;-62
2024/03/28 11:18:45;;;;;;;1.10;0.52;;;;;;;10.40;59.54;94250.16;2050540;28;20710;-62
2024/03/28 11:19:45;;;;;;;1.20;0.60;;;;;;;10.71;59.02;94273.72;2055529;28;20228;-63
2024/03/28 11:20:52;;;;;;;1.33;0.50;;;;;;;10.74;58.72;94263.84;2055874;28;20215;-63
2024/03/28 11:21:54;;;;;;;1.02;0.50;;;;;;;10.77;59.44;94268.81;2057981;28;20460;-62
2024/03/28 11:23:03;;;;;;;1.30;0.63;;;;;;;10.83;58.55;94290.13;2064238;28;20215;-62
2024/03/28 11:24:05;;;;;;;2.35;0.60;;;;;;;10.81;58.37;94284.22;2063668;28;20253;-62
2024/03/28 11:25:30;;;;;;;2.38;0.50;;;;;;;11.17;58.13;94261.19;2064806;28;20265;-62
2024/03/28 11:26:31;;;;;;;1.10;0.60;;;;;;;11.24;58.28;94263.13;2068518;28;20213;-62
2024/03/28 11:27:31;;;;;;;1.67;0.50;;;;;;;11.15;57.67;94265.69;2057366;28;20208;-63
2024/03/28 11:28:33;;;;;;;1.50;0.50;;;;;;;10.83;57.20;94279.69;2057765;28;20241;-62
2024/03/28 11:29:33;;;;;;;1.00;0.50;;;;;;;10.76;57.20;94292.44;2059569;28;20204;-62
2024/03/28 11:30:36;;;;;;;1.83;0.50;;;;;;;11.09;58.22;94275.72;2061918;28;20207;-62
2024/03/28 11:31:36;;;;;;;2.95;0.55;;;;;;;11.51;57.57;94280.03;2061812;28;20223;-62
2024/03/28 11:32:37;;;;;;;1.30;0.50;;;;;;;11.27;57.79;94265.50;2068546;28;20361;-64
2024/03/28 11:33:37;;;;;;;1.10;0.50;;;;;;;11.40;56.64;94287.97;2066904;28;20539;-64
2024/03/28 11:34:38;;;;;;;1.70;0.80;;;;;;;11.31;56.13;94289.56;2060143;28;20211;-64
2024/03/28 11:35:41;;;;;;;1.33;0.60;;;;;;;11.59;55.55;94295.03;2061309;28;20207;-64
2024/03/28 11:36:42;;;;;;;1.63;0.70;;;;;;;11.30;56.37;94293.16;2061412;28;20804;-64
2024/03/28 11:37:43;;;;;;;1.00;0.50;;;;;;;11.44;55.71;94294.59;2059969;28;20224;-64
2024/03/28 11:38:44;;;;;;;3.65;0.70;;;;;;;11.94;55.74;94280.72;2059808;28;20226;-64
2024/03/28 11:39:46;;;;;;;1.10;0.50;;;;;;;11.98;55.17;94291.75;2054896;28;20220;-65
2024/03/28 11:40:47;;;;;;;1.00;0.50;;;;;;;11.87;55.73;94290.03;2054644;28;20266;-64
2024/03/28 11:41:47;;;;;;;1.63;0.50;;;;;;;11.92;54.75;94282.63;2062480;28;20203;-64
2024/03/28 11:42:48;;;;;;;1.70;0.50;;;;;;;12.07;55.22;94281.31;2061780;28;20688;-64
2024/03/28 11:43:50;;;;;;;1.93;0.67;;;;;;;11.96;54.46;94285.81;2067984;28;20226;-64
2024/03/28 11:44:51;;;;;;;2.10;0.60;;;;;;;12.25;53.65;94298.94;2059174;28;20211;-63
2024/03/28 11:45:56;;;;;;;1.20;0.60;;;;;;;12.32;53.49;94305.31;2052905;28;20239;-63
2024/03/28 11:47:00;;;;;;;1.30;0.57;;;;;;;12.48;53.68;94303.94;2055998;28;20629;-64
2024/03/28 11:48:05;;;;;;;1.48;0.63;;;;;;;11.77;51.50;94290.03;2053625;28;20223;-64
2024/03/28 11:49:06;;;;;;;1.10;0.50;;;;;;;12.03;51.62;94287.78;2052176;28;20872;-63
2024/03/28 11:50:07;;;;;;;1.23;0.60;;;;;;;12.00;51.41;94295.06;2060239;28;20632;-64
2024/03/28 11:51:08;;;;;;;1.10;0.50;;;;;;;11.56;51.42;94295.31;2061898;28;20441;-63
2024/03/28 11:52:09;;;;;;;3.37;0.60;;;;;;;12.04;51.31;94320.81;2068888;28;20287;-64
2024/03/28 11:53:10;;;;;;;1.10;0.50;;;;;;;11.89;50.65;94312.47;2067202;28;20443;-63
2024/03/28 11:54:16;;;;;;;1.70;0.60;;;;;;;12.15;51.96;94300.72;2058420;28;20318;-63
2024/03/28 11:55:17;;;;;;;4.55;0.70;;;;;;;11.99;51.56;94301.28;2062076;28;20212;-63
2024/03/28 11:56:18;;;;;;;1.20;0.60;;;;;;;11.88;52.59;94313.47;2061029;28;20219;-63
2024/03/28 11:57:19;;;;;;;1.80;0.50;;;;;;;11.53;52.06;94312.09;2067879;28;20907;-62
2024/03/28 11:58:24;;;;;;;1.85;0.60;;;;;;;11.09;52.60;94327.94;2066579;28;20241;-63
2024/03/28 11:59:25;;;;;;;1.20;0.60;;;;;;;11.06;53.51;94316.94;2068820;28;20226;-62
2024/03/28 12:00:25;;;;;;;1.70;0.67;;;;;;;10.77;53.35;94310.56;2068334;28;20633;-62
2024/03/28 12:01:26;;;;;;;2.60;0.50;;;;;;;10.43;54.33;94330.78;2061214;28;20445;-63
2024/03/28 12:02:27;;;;;;;1.00;0.50;;;;;;;10.17;53.91;94322.41;2056149;28;20212;-63
2024/03/28 12:03:27;;;;;;;1.00;0.43;;;;;;;9.92;55.29;94345.22;2052638;28;20220;-62
2024/03/28 12:04:29;;;;;;;3.10;0.70;;;;;;;10.07;56.01;94335.34;2061841;28;20211;-63
2024/03/28 12:05:31;;;;;;;2.95;0.60;;;;;;;10.01;55.90;94333.22;2072230;28;20239;-62
2024/03/28 12:06:31;;;;;;;1.48;0.60;;;;;;;10.19;56.22;94336.97;2064311;28;20210;-63
2024/03/28 12:07:32;;;;;;;2.90;0.70;;;;;;;10.13;56.66;94340.91;2061850;28;20706;-61
2024/03/28 12:08:32;;;;;;;1.77;0.60;;;;;;;10.13;55.17;94347.88;2063840;28;20241;-61
2024/03/28 12:09:36;;;;;;;1.23;0.60;;;;;;;10.24;55.41;94350.47;2063564;28;20757;-62
2024/03/28 12:10:37;;;;;;;1.00;0.50;;;;;;;10.24;55.14;94340.03;2070016;28;20280;-62
2024/03/28 12:11:38;;;;;;;2.33;0.60;;;;;;;10.23;55.44;94353.19;2067620;28;20203;-62
2024/03/28 12:12:38;;;;;;;1.10;0.50;;;;;;;10.75;56.00;94354.25;2067102;28;20325;-62
2024/03/28 12:13:39;;;;;;;6.20;0.50;;;;;;;10.88;55.70;94374.97;2056638;28;20697;-62
2024/03/28 12:14:40;;;;;;;1.27;0.63;;;;;;;10.56;54.78;94348.88;2059826;28;20515;-62
2024/03/28 12:15:40;;;;;;;1.20;0.60;;;;;;;10.47;55.94;94332.16;2068686;28;20570;-62
2024/03/28 12:16:47;;;;;;;2.50;0.60;;;;;;;10.34;55.71;94341.94;2067144;28;20304;-64
2024/03/28 12:17:48;;;;;;;1.10;0.50;;;;;;;9.91;55.48;94327.91;2058730;28;20214;-61
2024/03/28 12:18:48;;;;;;;8.53;0.60;;;;;;;9.86;56.22;94335.25;2065678;28;20222;-63
2024/03/28 12:19:49;;;;;;;1.60;0.70;;;;;;;9.68;56.18;94358.38;2057572;28;20251;-62
2024/03/28 12:21:00;;;;;;;1.37;0.53;;;;;;;9.57;56.67;94352.22;2058678;28;20219;-62
2024/03/28 12:22:02;;;;;;;1.70;0.60;;;;;;;9.77;57.24;94350.66;2064552;28;20210;-62
2024/03/28 12:23:03;;;;;;;2.30;0.52;;;;;;;9.68;56.92;94389.66;2062793;28;20545;-62
2024/03/28 12:24:05;;;;;;;1.20;0.50;;;;;;;9.74;56.76;94353.53;2057846;28;20214;-62
2024/03/28 12:25:13;;;;;;;2.40;0.70;;;;;;;9.85;56.73;94342.25;2071657;28;20268;-62
2024/03/28 12:26:18;;;;;;;2.22;0.60;;;;;;;9.96;57.30;94350.03;2061486;28;20215;-62
2024/03/28 12:27:18;;;;;;;1.05;0.52;;;;;;;9.81;57.45;94340.81;2059975;28;20689;-62
2024/03/28 12:28:21;;;;;;;1.47;0.60;;;;;;;9.64;57.84;94345.56;2059039;28;20670;-63
2024/03/28 12:29:25;;;;;;;1.25;0.57;;;;;;;9.97;57.70;94350.91;2064005;28;20214;-63
2024/03/28 12:30:29;;;;;;;1.30;0.57;;;;;;;10.42;57.57;94355.19;2062542;28;20613;-62
2024/03/28 12:31:30;;;;;;;1.80;0.80;;;;;;;10.38;57.41;94356.41;2058575;28;20211;-63
2024/03/28 12:32:31;;;;;;;2.30;0.60;;;;;;;10.70;56.53;94345.94;2062657;28;20277;-62
2024/03/28 12:33:32;;;;;;;2.20;0.55;;;;;;;11.17;55.78;94356.03;2061225;28;20223;-62
2024/03/28 12:34:32;;;;;;;3.33;1.03;;;;;;;11.66;55.29;94351.06;2063369;28;20645;-63
2024/03/28 12:35:34;;;;;;;1.10;0.50;;;;;;;11.79;54.68;94344.81;2061243;28;20702;-63
2024/03/28 12:36:35;;;;;;;1.00;0.50;;;;;;;11.22;54.73;94364.34;2063827;28;20214;-62
2024/03/28 12:37:35;;;;;;;8.00;0.63;;;;;;;11.46;55.42;94370.25;2063486;28;20215;-63
2024/03/28 12:38:36;;;;;;;1.20;0.50;;;;;;;11.55;55.25;94375.53;2062125;28;20357;-62
2024/03/28 12:39:36;;;;;;;1.00;0.50;;;;;;;11.70;54.49;94389.06;2063299;28;20557;-62
2024/03/28 12:40:45;;;;;;;1.20;0.60;;;;;;;11.75;53.86;94375.59;2061177;28;20219;-70
2024/03/28 12:41:55;;;;;;;1.95;0.55;;;;;;;11.59;54.33;94376.06;2060615;28;20215;-71
2024/03/28 12:42:59;;;;;;;1.10;0.60;;;;;;;11.63;54.39;94380.09;2065034;28;20538;-72
2024/03/28 12:44:03;;;;;;;1.10;0.50;;;;;;;12.07;54.01;94380.72;2059789;28;20254;-71
2024/03/28 12:45:16;;;;;;;1.33;0.60;;;;;;;11.54;52.81;94371.25;2061711;28;20210;-72
2024/03/28 12:46:16;;;;;;;1.00;0.50;;;;;;;11.75;53.48;94380.84;2067156;28;20254;-72
2024/03/28 12:47:17;;;;;;;1.00;0.50;;;;;;;11.68;53.33;94400.59;2063843;28;20774;-72
2024/03/28 12:48:18;;;;;;;1.10;0.60;;;;;;;11.57;52.59;94378.00;2059611;28;20438;-72
2024/03/28 12:49:18;;;;;;;1.00;0.50;;;;;;;11.64;52.48;94391.38;2059562;28;20226;-71
2024/03/28 12:50:23;;;;;;;1.00;0.50;;;;;;;11.93;52.30;94389.72;2059003;28;20879;-72
2024/03/28 12:51:23;;;;;;;1.73;0.60;;;;;;;12.04;52.12;94383.59;2062272;28;20219;-70
2024/03/28 12:52:24;;;;;;;1.00;0.50;;;;;;;11.91;51.11;94390.81;2062046;28;20270;-71
2024/03/28 12:53:24;;;;;;;3.30;2.20;;;;;;;11.62;51.42;94380.22;2059998;28;20231;-71
2024/03/28 12:54:25;;;;;;;1.60;0.90;;;;;;;11.20;52.21;94376.69;2069173;28;20747;-69
2024/03/28 12:55:25;;;;;;;2.23;1.00;;;;;;;11.38;51.84;94391.78;2060282;28;20208;-71
2024/03/28 12:56:26;;;;;;;1.60;0.60;;;;;;;10.91;52.35;94402.59;2060615;28;20278;-71
2024/03/28 12:57:26;;;;;;;1.10;0.50;;;;;;;11.25;52.18;94397.22;2060418;28;20566;-72
2024/03/28 12:58:27;;;;;;;1.23;0.50;;;;;;;10.93;52.82;94405.91;2063269;28;20241;-72
2024/03/28 12:59:27;;;;;;;1.20;0.50;;;;;;;10.86;53.34;94402.97;2062052;28;20348;-71
2024/03/28 13:00:28;;;;;;;1.60;0.60;;;;;;;10.90;53.66;94396.53;2062042;28;20222;-71
2024/03/28 13:01:28;;;;;;;1.60;0.60;;;;;;;10.60;52.62;94405.06;2063639;28;20227;-71
2024/03/28 13:02:29;;;;;;;1.33;0.80;;;;;;;10.42;52.91;94412.59;2063741;28;20214;-71
2024/03/28 13:03:30;;;;;;;1.50;0.50;;;;;;;10.41;53.76;94419.59;2070558;28;20218;-71
2024/03/28 13:04:31;;;;;;;2.55;0.60;;;;;;;10.29;53.97;94433.59;2063858;28;20573;-71
2024/03/28 13:05:31;;;;;;;1.00;0.50;;;;;;;10.27;54.96;94435.47;2061424;28;20584;-71
2024/03/28 13:06:32;;;;;;;1.43;0.70;;;;;;;10.20;55.45;94461.22;2061916;28;20931;-71
2024/03/28 13:07:33;;;;;;;1.67;0.60;;;;;;;9.85;57.83;94474.38;2059614;28;20243;-71
2024/03/28 13:08:33;;;;;;;1.10;0.50;;;;;;;9.26;61.39;94470.94;2066338;28;20219;-71
2024/03/28 13:09:34;;;;;;;1.00;0.40;;;;;;;8.74;63.95;94478.16;2059149;28;20798;-72
2024/03/28 13:10:34;;;;;;;1.00;0.50;;;;;;;8.73;65.27;94487.72;2063454;28;20286;-72
2024/03/28 13:11:35;;;;;;;4.60;0.60;;;;;;;8.54;65.62;94483.00;2071203;28;20308;-72
2024/03/28 13:12:36;;;;;;;1.00;0.50;;;;;;;8.42;66.43;94486.47;2063727;28;20630;-71
2024/03/28 13:13:37;;;;;;;1.17;0.55;;;;;;;8.66;67.36;94491.72;2052512;28;20230;-71
2024/03/28 13:14:38;;;;;;;1.10;0.50;;;;;;;8.59;67.14;94486.13;2057441;28;20208;-71
2024/03/28 13:15:39;;;;;;;6.17;0.60;;;;;;;8.78;67.25;94484.81;2061328;28;20222;-71
2024/03/28 13:16:40;;;;;;;1.67;0.60;;;;;;;9.73;64.90;94482.16;2063722;28;20234;-71
2024/03/28 13:17:41;;;;;;;1.20;0.50;;;;;;;10.48;63.39;94479.13;2058288;28;20223;-71
2024/03/28 13:18:42;;;;;;;1.30;0.50;;;;;;;10.94;62.59;94475.47;2050939;28;20216;-71
2024/03/28 13:19:44;;;;;;;1.00;0.50;;;;;;;11.66;61.71;94465.28;2060354;28;20696;-71
2024/03/28 13:20:45;;;;;;;1.10;0.50;;;;;;;11.87;60.60;94468.72;2058518;28;20715;-71
2024/03/28 13:21:46;;;;;;;1.13;0.50;;;;;;;11.89;60.74;94466.78;2061297;28;20618;-72
2024/03/28 13:22:49;;;;;;;1.00;0.50;;;;;;;11.80;60.01;94472.78;2058204;28;20219;-72
2024/03/28 13:23:49;;;;;;;1.00;0.50;;;;;;;11.35;61.24;94463.44;2062986;28;20253;-72
2024/03/28 13:24:50;;;;;;;1.70;0.50;;;;;;;11.65;60.94;94477.50;2068507;28;20214;-72
2024/03/28 13:25:50;;;;;;;1.10;0.50;;;;;;;11.48;60.95;94481.53;2059034;28;20219;-71
2024/03/28 13:26:54;;;;;;;1.40;0.50;;;;;;;11.91;60.18;94477.13;2053169;28;20208;-72
2024/03/28 13:27:54;;;;;;;1.10;0.50;;;;;;;12.77;58.75;94475.94;2063697;28;20226;-72
2024/03/28 13:28:55;;;;;;;1.00;0.50;;;;;;;12.76;57.93;94485.59;2062021;28;20527;-72
2024/03/28 13:29:56;;;;;;;1.43;0.50;;;;;;;12.49;57.94;94486.19;2063289;28;20848;-72
2024/03/28 13:30:57;;;;;;;1.00;0.50;;;;;;;13.01;57.74;94484.25;2055648;28;20512;-72
2024/03/28 13:31:58;;;;;;;1.20;0.57;;;;;;;13.55;56.54;94492.56;2052495;28;20655;-72
2024/03/28 13:32:58;;;;;;;1.67;0.60;;;;;;;13.65;56.32;94489.94;2068822;28;20222;-72
2024/03/28 13:33:59;;;;;;;1.13;0.50;;;;;;;12.94;56.40;94493.63;2065341;28;20483;-72
2024/03/28 13:34:59;;;;;;;1.50;0.60;;;;;;;12.90;56.00;94494.88;2058797;28;20218;-72
2024/03/28 13:36:00;;;;;;;2.03;0.70;;;;;;;12.49;56.77;94496.66;2059032;28;20285;-72
2024/03/28 13:37:01;;;;;;;1.43;0.60;;;;;;;12.93;56.73;94493.75;2066611;28;20221;-72
2024/03/28 13:38:03;;;;;;;1.20;0.53;;;;;;;13.75;56.14;94504.81;2059670;28;20226;-72
2024/03/28 13:39:03;;;;;;;1.10;0.50;;;;;;;13.03;55.77;94502.47;2059742;28;20844;-72
2024/03/28 13:40:05;;;;;;;2.07;0.60;;;;;;;12.54;56.32;94500.56;2060946;28;20325;-72
2024/03/28 13:41:05;;;;;;;1.30;0.60;;;;;;;11.86;57.07;94500.19;2060041;28;20212;-72
2024/03/28 13:42:07;;;;;;;1.73;0.60;;;;;;;11.51;57.48;94504.78;2059385;28;20211;-72
2024/03/28 13:43:08;;;;;;;1.20;0.50;;;;;;;11.33;58.42;94503.72;2061345;28;20236;-71
2024/03/28 13:44:08;;;;;;;1.10;0.50;;;;;;;11.11;60.05;94498.44;2058363;28;20255;-72
2024/03/28 13:45:09;;;;;;;2.90;0.60;;;;;;;11.11;60.23;94508.06;2063192;28;20211;-72
2024/03/28 13:46:09;;;;;;;1.30;0.60;;;;;;;10.75;59.45;94510.88;2063484;28;20285;-72
2024/03/28 13:47:11;;;;;;;1.10;0.50;;;;;;;10.84;60.26;94522.34;2058230;28;20637;-72
2024/03/28 13:48:22;;;;;;;1.33;0.60;;;;;;;11.28;60.17;94515.34;2066598;28;20229;-71
2024/03/28 13:49:24;;;;;;;1.00;0.50;;;;;;;11.48;61.05;94523.34;2066602;28;20644;-72
2024/03/28 13:50:24;;;;;;;12.20;0.68;;;;;;;11.33;60.87;94535.06;2061897;28;20242;-72
2024/03/28 13:51:26;;;;;;;1.10;0.50;;;;;;;11.03;60.65;94524.31;2058875;28;20234;-72
2024/03/28 13:52:27;;;;;;;1.80;0.60;;;;;;;11.11;59.71;94526.34;2063557;28;20210;-72
2024/03/28 13:53:30;;;;;;;2.50;0.60;;;;;;;10.64;58.71;94530.94;2062813;28;20249;-72
2024/03/28 13:54:32;;;;;;;1.10;0.60;;;;;;;10.48;59.12;94539.97;2068269;28;20207;-72
2024/03/28 13:55:33;;;;;;;1.10;0.50;;;;;;;11.21;58.19;94535.09;2063654;28;20218;-72
2024/03/28 13:56:33;;;;;;;1.83;0.70;;;;;;;11.28;58.26;94545.88;2055261;28;20207;-72
2024/03/28 13:57:34;;;;;;;2.80;0.67;;;;;;;10.95;58.92;94532.78;2063266;28;20210;-72
2024/03/28 13:58:34;;;;;;;1.40;0.60;;;;;;;10.81;59.39;94540.06;2062986;28;20222;-72
2024/03/28 13:59:35;;;;;;;1.30;0.50;;;;;;;10.49;59.94;94536.41;2058691;28;20270;-71
2024/03/28 14:00:36;;;;;;;9.03;0.50;;;;;;;10.03;60.28;94537.31;2067234;28;20207;-72
2024/03/28 14:01:41;;;;;;;2.03;0.60;;;;;;;10.10;61.31;94541.94;2066926;28;20480;-72
2024/03/28 14:02:42;;;;;;;1.63;0.60;;;;;;;9.93;61.52;94548.44;2060011;28;20923;-72
2024/03/28 14:03:43;;;;;;;2.28;0.70;;;;;;;9.54;61.37;94540.03;2057470;28;20220;-72
2024/03/28 14:04:44;;;;;;;2.50;0.60;;;;;;;9.45;62.09;94549.38;2059222;28;20217;-71
2024/03/28 14:05:45;;;;;;;5.40;0.60;;;;;;;9.42;62.62;94564.38;2060700;28;20211;-63
2024/03/28 14:10:18;;;;;;;3.05;0.73;;;;;;;8.68;64.95;94565.28;2084012;28;21024;-63
2024/03/28 14:19:20;;;;;;;1.30;0.60;;;;;;;7.47;73.37;94619.28;2091723;28;20549;-62
2024/03/28 14:20:21;;;;;;;1.10;0.60;;;;;;;7.62;75.02;94631.28;2090381;28;20204;-61
2024/03/28 14:21:22;;;;;;;5.13;0.70;;;;;;;7.96;74.42;94633.41;2084772;28;20247;-62
2024/03/28 14:22:23;;;;;;;4.50;0.60;;;;;;;8.15;73.75;94613.06;2084011;28;20201;-63
2024/03/28 14:23:23;;;;;;;1.85;0.90;;;;;;;8.40;73.46;94615.78;2075348;28;20472;-63
2024/03/28 14:24:24;;;;;;;2.07;0.80;;;;;;;8.71;73.42;94632.75;2058954;28;20207;-63
2024/03/28 14:25:24;;;;;;;1.63;0.63;;;;;;;8.96;73.47;94620.59;2058615;28;20252;-63
2024/03/28 14:26:25;;;;;;;1.30;0.60;;;;;;;9.10;72.13;94611.81;2058069;28;20237;-63
2024/03/28 14:27:25;;;;;;;2.63;0.67;;;;;;;9.42;70.37;94616.50;2058927;28;20668;-63
2024/03/28 14:28:26;;;;;;;1.43;0.60;;;;;;;9.78;70.07;94610.38;2060921;28;20241;-63
2024/03/28 14:29:26;;;;;;;5.33;0.70;;;;;;;9.94;68.78;94606.63;2070457;28;20210;-63
2024/03/28 14:30:28;;;;;;;3.40;0.80;;;;;;;10.01;67.73;94602.63;2062276;28;20669;-63
2024/03/28 14:31:28;;;;;;;2.25;0.88;;;;;;;9.96;67.55;94604.72;2075525;28;20247;-61
2024/03/28 14:32:29;;;;;;;1.20;0.50;;;;;;;9.73;66.55;94601.25;2078729;28;20300;-62
2024/03/28 14:33:31;;;;;;;1.73;0.60;;;;;;;10.11;67.07;94600.16;2069483;28;20712;-63
2024/03/28 14:34:32;;;;;;;1.80;0.85;;;;;;;10.19;66.28;94596.97;2073579;28;20206;-61
2024/03/28 14:35:33;;;;;;;4.32;0.90;;;;;;;10.04;65.65;94586.72;2067079;28;20252;-61
2024/03/28 14:36:33;;;;;;;2.20;0.87;;;;;;;9.94;64.84;94588.38;2067328;28;20675;-61
2024/03/28 14:37:34;;;;;;;3.07;0.70;;;;;;;9.95;64.16;94587.41;2064089;28;20762;-61
2024/03/28 14:38:35;;;;;;;2.17;0.83;;;;;;;9.91;65.03;94581.59;2061872;28;20228;-62
2024/03/28 14:39:35;;;;;;;2.47;0.88;;;;;;;10.24;64.70;94571.34;2066866;28;20206;-61
2024/03/28 14:40:36;;;;;;;1.53;0.73;;;;;;;10.48;63.77;94571.28;2068579;28;20206;-62
2024/03/28 14:41:37;;;;;;;2.80;0.60;;;;;;;10.23;63.06;94574.91;2067508;28;20213;-61
2024/03/28 14:42:38;;;;;;;1.75;0.60;;;;;;;10.43;63.54;94576.03;2066356;28;20210;-62
2024/03/28 14:43:40;;;;;;;1.63;0.70;;;;;;;10.48;63.40;94579.09;2072495;28;20694;-62
2024/03/28 14:44:44;;;;;;;1.10;0.50;;;;;;;10.57;62.77;94578.38;2075591;28;20210;-68
2024/03/28 14:45:44;;;;;;;1.20;0.60;;;;;;;10.59;62.53;94576.50;2067100;28;20295;-69
2024/03/28 14:46:45;;;;;;;1.30;0.50;;;;;;;10.28;62.66;94570.16;2074838;28;20216;-69
2024/03/28 14:47:45;;;;;;;1.40;0.50;;;;;;;10.45;62.98;94579.34;2075608;28;20297;-69
2024/03/28 14:48:46;;;;;;;1.30;0.67;;;;;;;10.67;63.02;94578.50;2065997;28;20829;-69
2024/03/28 14:49:46;;;;;;;1.40;0.83;;;;;;;10.75;61.93;94586.59;2074468;28;20687;-69
2024/03/28 14:50:47;;;;;;;1.30;0.70;;;;;;;10.66;61.28;94586.47;2070210;28;20208;-69
2024/03/28 14:51:49;;;;;;;1.77;0.70;;;;;;;10.68;61.59;94579.34;2070240;28;20211;-69
2024/03/28 14:52:49;;;;;;;1.80;0.77;;;;;;;10.64;61.60;94580.53;2070233;28;20198;-69